Latest Weather Observations for Omeo

IDV60801

Issued at 5:32 am EST Sunday 22 September 2019 (issued every 10 minutes, with the page automatically refreshed every 10 minutes)

About weather observations | Map of weather stations | Latest weather observations for VIC | Other Formats
Station Details ID: 083090 Name: OMEO Lat: -37.10 Lon: 147.60 Height: 689.8 m
Data from the previous 72 hours. | See also: Recent months at Omeo
Date/Time
EST
Temp
°C
App
Temp
°C
Dew
Point
°C
Rel
Hum
%
Delta-T
°C
Wind Press
QNH
hPa
Press
MSL
hPa
Rain since
9am
mm
Dir  Spd
km/h
Gust
km/h
Spd
kts
Gust
kts
22/05:30am 4.2 0.5 2.4 88 0.8 N 11 13 6 7 1019.4 1019.6 8.0
22/05:00am 5.4 1.4 2.9 84 1.1 N 13 17 7 9 1018.9 1019.0 8.0
22/04:30am 4.8 1.5 2.7 86 0.9 N 9 11 5 6 1018.6 1018.7 8.0
22/04:00am 5.2 2.0 2.9 85 1.0 NNW 9 11 5 6 1018.4 1018.5 8.0
22/03:30am 5.7 2.5 2.9 82 1.2 NNW 9 11 5 6 1018.4 1018.5 8.0
22/03:00am 6.1 2.8 2.7 79 1.5 NNW 9 13 5 7 1018.4 1018.5 8.0
22/02:30am 6.7 3.1 3.0 77 1.6 NNW 11 15 6 8 1018.3 1018.4 8.0
22/02:00am 6.7 3.1 3.1 78 1.6 N 11 17 6 9 1018.2 1018.3 8.0
22/01:30am 7.6 3.0 3.5 75 1.8 N 17 24 9 13 1018.5 1018.6 8.0
22/01:00am 8.4 4.2 3.8 73 2.1 NNW 15 20 8 11 1018.8 1018.9 8.0
22/12:30am 8.3 4.0 3.2 70 2.3 NNW 15 20 8 11 1018.4 1018.5 8.0
22/12:00am 7.7 3.4 3.0 72 2.1 N 15 20 8 11 1018.1 1018.1 8.0
 
Date/Time
EST
Temp
°C
App
Temp
°C
Dew
Point
°C
Rel
Hum
%
Delta-T
°C
Wind Press
QNH
hPa
Press
MSL
hPa
Rain since
9am
mm
Dir  Spd
km/h
Gust
km/h
Spd
kts
Gust
kts
21/11:30pm 7.7 3.8 3.6 75 1.8 NNW 13 17 7 9 1018.1 1018.1 8.0
21/11:00pm 8.0 4.8 3.3 72 2.1 NNW 9 13 5 7 1017.9 1018.0 8.0
21/10:30pm 8.7 4.6 2.1 63 2.9 NNW 13 19 7 10 1017.7 1017.8 8.0
21/10:00pm 9.9 3.9 0.8 53 3.9 NNW 22 33 12 18 1017.5 1017.6 8.0
21/09:30pm 10.1 4.2 1.7 56 3.7 NW 22 33 12 18 1017.4 1017.5 8.0
21/09:00pm 10.7 4.1 2.0 55 3.8 NNW 26 37 14 20 1017.1 1017.2 8.0
21/08:30pm 11.2 4.2 2.2 54 4.0 NNW 28 44 15 24 1016.9 1017.0 8.0
21/08:00pm 10.2 5.4 4.8 69 2.5 NNW 19 28 10 15 1016.6 1016.6 8.0
21/07:30pm 10.1 6.2 5.3 72 2.3 N 15 24 8 13 1016.2 1016.3 8.0
21/07:00pm 11.7 6.7 4.4 61 3.4 NNW 20 32 11 17 1015.8 1015.9 8.0
21/06:30pm 12.0 6.5 4.0 58 3.7 NNW 22 33 12 18 1015.3 1015.3 8.0
21/06:00pm 12.5 6.6 4.0 56 4.0 NNW 24 43 13 23 1015.0 1015.0 8.0
21/05:30pm 12.9 8.0 5.1 59 3.8 NNW 20 37 11 20 1014.2 1014.2 8.0
21/05:00pm 13.2 8.9 6.8 65 3.2 NW 19 32 10 17 1013.8 1013.8 8.0
21/04:30pm 12.6 10.5 11.0 90 0.9 NW 13 20 7 11 1013.9 1013.9 8.0
21/04:00pm 12.1 9.0 10.3 89 1.0 NNW 17 22 9 12 1013.2 1013.3 6.6
21/03:30pm 13.6 9.4 9.6 77 2.1 NNW 22 33 12 18 1012.5 1012.5 5.0
21/03:00pm 15.4 10.5 8.6 64 3.6 NNW 24 32 13 17 1011.3 1011.3 4.8
21/02:30pm 15.6 10.8 8.8 64 3.6 NNW 24 37 13 20 1011.2 1011.2 4.8
21/02:00pm 15.5 9.4 10.3 71 2.8 NNW 33 57 18 31 1011.1 1011.1 4.4
21/01:37pm 15.5 10.4 10.5 72 2.7 NNW 28 57 15 31 1011.1 1011.1 4.4
21/01:30pm 14.9 11.5 12.4 85 1.4 NNW 22 32 12 17 1011.1 1011.1 4.2
21/01:00pm 13.7 11.3 12.6 93 0.6 N 17 28 9 15 1010.8 1010.8 4.0
21/12:30pm 13.3 11.0 13.0 98 0.2 NNW 17 32 9 17 1011.5 1011.5 3.2
21/12:00pm 13.3 9.8 12.2 93 0.6 N 22 37 12 20 1012.3 1012.3 2.8
21/11:30am 13.0 10.4 11.9 93 0.6 N 17 26 9 14 1013.1 1013.2 2.6
21/11:00am 13.0 10.0 12.1 94 0.5 N 19 26 10 14 1013.8 1013.8 1.2
21/10:30am 14.5 8.0 10.3 76 2.3 NNW 35 56 19 30 1013.7 1013.7 0.0
21/10:00am 16.3 9.4 10.2 67 3.3 NNW 37 56 20 30 1012.9 1012.9 0.0
21/09:35am 18.6 12.3 9.1 54 5.1 NNW 32 50 17 27 1012.4 1012.4 0.0
21/09:30am 18.8 12.4 9.3 54 5.2 NNW 33 46 18 25 1012.3 1012.3 0.0
21/09:04am 18.4 11.5 8.9 54 5.1 N 35 57 19 31 1011.7 1011.7 0.0
21/09:00am 18.5 12.0 9.0 54 5.1 N 33 50 18 27 1011.6 1011.6 0.0
21/08:41am 18.2 12.5 8.5 53 5.2 N 28 46 15 25 1011.9 1011.9 0.0
21/08:30am 17.7 13.0 9.3 58 4.5 N 24 35 13 19 1012.2 1012.2 0.0
21/08:00am 16.9 13.0 9.3 61 4.1 N 20 30 11 16 1012.7 1012.7 0.0
21/07:30am 15.4 13.1 8.9 65 3.4 NNW 11 17 6 9 1013.1 1013.2 0.0
21/07:00am 15.0 12.7 8.9 67 3.2 N 11 13 6 7 1013.2 1013.3 0.0
21/06:30am 14.6 12.2 8.5 67 3.2 N 11 15 6 8 1013.2 1013.3 0.0
21/06:00am 14.5 12.1 8.5 67 3.1 N 11 15 6 8 1013.5 1013.5 0.0
21/05:30am 13.8 11.3 8.2 69 2.9 NNW 11 17 6 9 1013.3 1013.4 0.0
21/05:00am 14.1 11.6 8.1 67 3.1 NNW 11 17 6 9 1013.5 1013.5 0.0
21/04:30am 14.7 11.8 8.2 65 3.4 NNW 13 22 7 12 1013.5 1013.5 0.0
21/04:00am 14.4 11.5 8.1 66 3.3 N 13 17 7 9 1013.5 1013.5 0.0
21/03:30am 15.4 11.4 8.2 62 3.8 N 19 28 10 15 1013.7 1013.7 0.0
21/03:00am 15.4 11.8 8.2 62 3.8 NNW 17 32 9 17 1014.0 1014.0 0.0
21/02:30am 16.1 11.9 8.1 59 4.2 NNW 20 28 11 15 1014.4 1014.5 0.0
21/02:00am 15.6 11.9 7.9 60 4.0 N 17 39 9 21 1014.4 1014.5 0.0
21/01:30am 14.4 10.7 7.9 65 3.4 N 17 28 9 15 1014.8 1014.9 0.0
21/01:00am 13.6 11.3 7.6 67 3.1 NE 9 19 5 10 1015.5 1015.5 0.0
21/12:30am 13.5 11.3 7.9 69 2.9 NE 9 15 5 8 1016.0 1016.1 0.0
21/12:00am 12.8 11.2 7.9 72 2.5 NNE 6 9 3 5 1016.7 1016.7 0.0
 
Date/Time
EST
Temp
°C
App
Temp
°C
Dew
Point
°C
Rel
Hum
%
Delta-T
°C
Wind Press
QNH
hPa
Press
MSL
hPa
Rain since
9am
mm
Dir  Spd
km/h
Gust
km/h
Spd
kts
Gust
kts
20/11:30pm 12.3 10.1 8.0 75 2.2 NNW 9 13 5 7 1017.1 1017.2 0.0
20/11:00pm 12.4 9.8 7.9 74 2.3 NNW 11 15 6 8 1017.5 1017.6 0.0
20/10:30pm 12.3 9.8 8.0 75 2.2 N 11 17 6 9 1017.9 1018.0 0.0
20/10:00pm 13.0 11.2 8.1 72 2.5 N 7 13 4 7 1018.3 1018.4 0.0
20/09:30pm 13.6 11.5 8.2 70 2.8 N 9 15 5 8 1018.7 1018.8 0.0
20/09:00pm 13.7 11.6 8.3 70 2.8 N 9 11 5 6 1018.8 1018.9 0.0
20/08:30pm 13.7 11.6 8.3 70 2.8 N 9 13 5 7 1018.9 1019.0 0.0
20/08:00pm 13.6 11.5 8.4 71 2.7 NNW 9 13 5 7 1018.8 1018.9 0.0
20/07:30pm 14.9 13.2 8.4 65 3.4 N 7 11 4 6 1018.7 1018.8 0.0
20/07:00pm 15.9 13.8 8.4 61 3.9 NNE 9 15 5 8 1018.5 1018.6 0.0
20/06:30pm 16.4 13.9 8.4 59 4.2 N 11 13 6 7 1018.5 1018.6 0.0
20/06:00pm 16.9 14.8 8.3 57 4.5 N 9 13 5 7 1018.5 1018.6 0.0
20/05:30pm 17.6 15.2 8.5 55 4.8 N 11 15 6 8 1018.5 1018.6 0.0
20/05:00pm 18.8 15.7 8.7 52 5.4 N 15 20 8 11 1018.6 1018.7 0.0
20/04:30pm 19.9 16.4 8.9 49 6.0 N 17 26 9 14 1018.6 1018.7 0.0
20/04:00pm 20.6 15.7 6.9 41 7.2 N 22 33 12 18 1018.6 1018.7 0.0
20/03:30pm 20.8 15.6 7.4 42 7.1 N 24 33 13 18 1018.7 1018.8 0.0
20/03:00pm 20.6 14.6 7.2 42 7.1 N 28 37 15 20 1018.8 1018.9 0.0
20/02:30pm 20.9 15.5 7.9 43 7.0 N 26 44 14 24 1019.1 1019.2 0.0
20/02:00pm 20.9 15.5 8.2 44 6.8 N 26 41 14 22 1019.3 1019.5 0.0
20/01:30pm 20.7 15.5 8.7 46 6.5 N 26 35 14 19 1019.8 1019.9 0.0
20/01:00pm 20.8 15.3 9.1 47 6.4 N 28 43 15 23 1020.1 1020.2 0.0
20/12:42pm 20.5 14.9 8.8 47 6.4 N 28 46 15 25 1020.3 1020.4 0.0
20/12:30pm 20.6 15.4 8.9 47 6.4 N 26 39 14 21 1020.4 1020.5 0.0
20/12:00pm 20.1 14.4 8.4 47 6.3 N 28 39 15 21 1020.7 1020.9 0.0
20/11:30am 19.6 14.9 9.2 51 5.7 N 24 41 13 22 1021.0 1021.2 0.0
20/11:00am 19.2 14.6 9.7 54 5.2 N 24 35 13 19 1021.4 1021.5 0.0
20/10:30am 18.7 13.7 9.5 55 5.0 NNE 26 41 14 22 1021.6 1021.7 0.0
20/10:00am 17.7 13.0 9.3 58 4.5 N 24 35 13 19 1022.1 1022.3 0.0
20/09:30am 17.0 12.2 8.9 59 4.3 N 24 35 13 19 1022.4 1022.6 0.0
20/09:00am 16.5 12.5 9.2 62 3.9 N 20 33 11 18 1022.8 1022.9 0.0
20/08:30am 15.6 11.9 9.3 66 3.4 N 19 26 10 14 1022.9 1023.0 0.0
20/08:00am 14.2 10.8 9.2 72 2.6 N 17 24 9 13 1023.0 1023.1 0.0
20/07:30am 13.0 9.1 8.7 75 2.2 N 19 28 10 15 1023.1 1023.3 0.0
20/07:00am 11.4 8.5 8.1 80 1.7 N 13 19 7 10 1023.1 1023.3 0.0
20/06:30am 10.6 7.6 7.8 83 1.4 N 13 19 7 10 1023.0 1023.1 0.0
20/06:00am 10.4 7.0 7.6 83 1.4 N 15 20 8 11 1022.9 1023.0 0.0
20/05:30am 11.0 8.0 7.9 81 1.6 N 13 19 7 10 1022.6 1022.8 0.0
20/05:00am 11.1 7.7 7.8 80 1.7 N 15 19 8 10 1022.3 1022.5 0.0
20/04:30am 11.4 7.7 7.9 79 1.8 N 17 22 9 12 1022.0 1022.2 0.0
20/04:00am 11.5 7.8 8.0 79 1.8 N 17 20 9 11 1022.0 1022.2 0.0
20/03:30am 11.6 8.3 7.9 78 1.9 N 15 22 8 12 1022.1 1022.3 0.0
20/03:00am 11.9 7.8 8.0 77 2.0 N 19 26 10 14 1022.0 1022.2 0.0
20/02:30am 11.7 8.0 8.0 78 1.9 N 17 24 9 13 1022.1 1022.3 0.0
20/02:00am 11.6 7.9 7.9 78 1.9 N 17 20 9 11 1022.2 1022.4 0.0
20/01:30am 11.6 7.9 8.1 79 1.8 N 17 20 9 11 1022.4 1022.6 0.0
20/01:00am 11.5 7.4 8.0 79 1.8 N 19 24 10 13 1022.8 1022.9 0.0
20/12:30am 11.3 7.7 8.2 81 1.6 N 17 22 9 12 1022.9 1023.0 0.0
20/12:00am 11.4 7.8 8.4 82 1.5 N 17 24 9 13 1022.8 1022.9 0.0
 
Date/Time
EST
Temp
°C
App
Temp
°C
Dew
Point
°C
Rel
Hum
%
Delta-T
°C
Wind Press
QNH
hPa
Press
MSL
hPa
Rain since
9am
mm
Dir  Spd
km/h
Gust
km/h
Spd
kts
Gust
kts
19/11:30pm 11.6 8.4 8.5 81 1.6 N 15 20 8 11 1022.9 1023.0 0.0
19/11:00pm 11.3 8.5 8.7 84 1.3 N 13 19 7 10 1022.9 1023.0 0.0
19/10:30pm 11.9 8.8 8.9 82 1.6 N 15 22 8 12 1023.1 1023.3 0.0
19/10:00pm 11.9 9.3 9.3 84 1.4 N 13 17 7 9 1023.1 1023.3 0.0
19/09:30pm 13.1 10.2 9.5 79 1.9 N 15 24 8 13 1023.1 1023.3 0.0
19/09:00pm 12.5 9.1 9.3 81 1.7 N 17 24 9 13 1023.1 1023.3 0.0
19/08:30pm 13.1 10.1 9.2 77 2.0 N 15 20 8 11 1023.0 1023.1 0.0
19/08:00pm 13.6 11.3 9.1 74 2.4 N 11 13 6 7 1022.8 1022.9 0.0
19/07:30pm 14.5 11.8 9.1 70 2.9 N 13 19 7 10 1022.8 1022.9 0.0
19/07:00pm 15.4 13.5 8.9 65 3.4 N 9 15 5 8 1022.6 1022.8 0.0
19/06:30pm 16.4 12.8 8.4 59 4.2 NW 17 24 9 13 1022.3 1022.5 0.0
19/06:00pm 16.6 13.8 8.6 59 4.2 NW 13 19 7 10 1022.1 1022.3 0.0
19/05:30pm 17.9 15.1 8.5 54 5.0 NNW 13 20 7 11 1021.9 1022.1 0.0
19/05:00pm 18.8 14.9 8.5 51 5.5 NNW 19 28 10 15 1021.8 1022.0 0.0
19/04:30pm 19.4 15.7 8.1 48 6.0 NNW 17 26 9 14 1021.7 1021.8 0.0
19/04:00pm 19.9 16.2 9.5 51 5.7 N 19 28 10 15 1021.7 1021.8 0.0
19/03:30pm 19.9 16.1 9.2 50 5.9 N 19 28 10 15 1021.8 1022.0 0.0
19/03:00pm 20.0 16.3 9.6 51 5.7 N 19 32 10 17 1021.9 1022.1 0.0
19/02:30pm 20.0 16.0 9.0 49 6.0 N 20 32 11 17 1022.1 1022.3 0.0
19/02:00pm 19.9 15.7 8.3 47 6.2 N 20 30 11 16 1022.4 1022.6 0.0
19/01:30pm 19.4 14.4 8.1 48 6.0 N 24 35 13 19 1022.5 1022.7 0.0
19/01:00pm 19.4 15.2 8.1 48 6.0 N 20 32 11 17 1023.0 1023.1 0.0
19/12:30pm 19.3 14.7 8.0 48 6.0 N 22 32 12 17 1023.4 1023.6 0.0
19/12:00pm 19.3 15.3 9.2 52 5.5 N 20 33 11 18 1023.8 1024.0 0.0
19/11:30am 17.9 14.7 9.8 59 4.4 N 17 26 9 14 1024.3 1024.4 0.0
19/11:00am 16.3 13.5 9.9 66 3.5 N 15 22 8 12 1024.8 1025.0 0.0
19/10:30am 14.7 11.2 8.9 68 3.1 N 17 24 9 13 1025.1 1025.3 0.0
19/10:00am 12.8 9.6 7.0 68 2.9 N 13 17 7 9 1025.5 1025.8 0.0
19/09:30am 10.9 7.6 6.5 74 2.2 NNW 13 19 7 10 1026.0 1026.2 0.0
19/09:00am 8.9 5.7 5.3 78 1.7 NNW 11 15 6 8 1026.1 1026.3 0.2
19/08:30am 7.2 3.5 4.2 81 1.4 NNW 13 19 7 10 1026.3 1026.5 0.2
19/08:00am 5.3 1.8 3.6 89 0.7 NNW 11 17 6 9 1026.5 1026.7 0.2
19/07:30am 3.5 0.7 2.9 96 0.3 NW 7 11 4 6 1026.6 1026.8 0.2
19/07:00am 1.7 -1.2 1.6 99 0.0 WNW 6 9 3 5 1026.4 1026.6 0.2
19/06:30am 1.3 -1.8 1.2 99 0.0 NW 7 11 4 6 1026.4 1026.6 0.2
19/06:00am 1.1 -2.4 1.0 99 0.0 NW 9 11 5 6 1026.2 1026.4 0.2

Other formats

Comma delimited format used in spreadsheet applications
http://www.bom.gov.au/fwo/IDV60801/IDV60801.94908.axf

JavaScript Object Notation format (JSON) in row-major order
http://www.bom.gov.au/fwo/IDV60801/IDV60801.94908.json

Data quality

Most of these data are generated automatically and are frequently updated. Quality checks on data are not normally performed. It is possible for incorrect values to appear. Refer to information at About Latest Weather Observations and please check the disclaimer before using these data.